createdAt,value
2022-10-04T00:00:48.816Z,1018.48
2022-10-04T00:01:48.889Z,1018.48
2022-10-04T00:02:48.830Z,1018.49
2022-10-04T00:03:48.751Z,1018.49
2022-10-04T00:04:48.724Z,1018.50
2022-10-04T00:05:48.701Z,1018.45
2022-10-04T00:06:48.676Z,1018.44
2022-10-04T00:07:48.653Z,1018.43
2022-10-04T00:08:48.630Z,1018.39
2022-10-04T00:09:48.604Z,1018.38
2022-10-04T00:10:48.589Z,1018.37
2022-10-04T00:11:48.560Z,1018.39
2022-10-04T00:12:48.537Z,1018.40
2022-10-04T00:13:48.523Z,1018.35
2022-10-04T00:14:48.491Z,1018.31
2022-10-04T00:15:48.525Z,1018.27
2022-10-04T00:16:48.439Z,1018.26
2022-10-04T00:17:48.438Z,1018.25
2022-10-04T00:18:48.395Z,1018.30
2022-10-04T00:19:48.370Z,1018.22
2022-10-04T00:20:48.346Z,1018.21
2022-10-04T00:21:48.321Z,1018.17
2022-10-04T00:22:48.309Z,1018.12
2022-10-04T00:23:48.279Z,1018.08
2022-10-04T00:24:48.250Z,1018.10
2022-10-04T00:25:48.226Z,1018.15
2022-10-04T00:26:48.204Z,1018.18
2022-10-04T00:27:48.181Z,1018.20
2022-10-04T00:28:48.157Z,1018.18
2022-10-04T00:29:48.131Z,1018.12
2022-10-04T00:30:48.110Z,1018.09
2022-10-04T00:31:48.139Z,1018.07
2022-10-04T00:32:48.066Z,1018.07
2022-10-04T00:33:48.058Z,1018.04
2022-10-04T00:34:48.016Z,1018.07
2022-10-04T00:35:47.991Z,1018.10
2022-10-04T00:36:47.969Z,1018.11
2022-10-04T00:37:47.944Z,1018.12
2022-10-04T00:38:47.921Z,1018.15
2022-10-04T00:39:47.897Z,1018.20
2022-10-04T00:40:47.873Z,1018.16
2022-10-04T00:41:47.850Z,1018.15
2022-10-04T00:42:47.826Z,1018.11
2022-10-04T00:43:47.800Z,1018.09
2022-10-04T00:44:47.777Z,1018.11
2022-10-04T00:45:47.786Z,1018.08
2022-10-04T00:46:47.731Z,1018.05
2022-10-04T00:47:47.706Z,1018.05
2022-10-04T00:48:47.685Z,1018.02
2022-10-04T00:49:47.678Z,1018.01
2022-10-04T00:50:47.636Z,1017.94
2022-10-04T00:51:47.610Z,1017.86
2022-10-04T00:52:47.590Z,1017.83
2022-10-04T00:53:47.566Z,1017.83
2022-10-04T00:54:47.540Z,1017.81
2022-10-04T00:55:47.517Z,1017.83
2022-10-04T00:56:47.494Z,1017.87
2022-10-04T00:57:47.473Z,1017.83
2022-10-04T00:58:47.453Z,1017.84
2022-10-04T00:59:47.425Z,1017.85
2022-10-04T01:00:47.451Z,1017.85
2022-10-04T01:01:47.449Z,1017.84
2022-10-04T01:02:47.355Z,1017.87
2022-10-04T01:03:47.330Z,1017.85
2022-10-04T01:04:47.305Z,1017.87
2022-10-04T01:05:47.303Z,1017.89
2022-10-04T01:06:47.259Z,1017.89
2022-10-04T01:07:47.233Z,1017.90
2022-10-04T01:08:47.215Z,1017.88
2022-10-04T01:09:47.192Z,1017.86
2022-10-04T01:10:47.163Z,1017.84
2022-10-04T01:11:47.138Z,1017.87
2022-10-04T01:12:47.117Z,1017.79
2022-10-04T01:13:47.089Z,1017.80
2022-10-04T01:14:47.066Z,1017.81
2022-10-04T01:15:47.103Z,1017.84
2022-10-04T01:16:47.020Z,1017.79
2022-10-04T01:17:46.996Z,1017.84
2022-10-04T01:18:46.986Z,1017.81
2022-10-04T01:19:46.953Z,1017.82
2022-10-04T01:20:46.928Z,1017.79
2022-10-04T01:21:46.928Z,1017.82
2022-10-04T01:22:46.884Z,1017.79
2022-10-04T01:23:46.855Z,1017.81
2022-10-04T01:24:46.832Z,1017.77
2022-10-04T01:25:46.812Z,1017.78
2022-10-04T01:26:46.786Z,1017.74
2022-10-04T01:27:46.761Z,1017.72
2022-10-04T01:28:46.741Z,1017.67
2022-10-04T01:29:46.712Z,1017.71
2022-10-04T01:30:46.691Z,1017.73
2022-10-04T01:31:46.855Z,1017.68
2022-10-04T01:32:46.644Z,1017.66
2022-10-04T01:33:46.619Z,1017.69
2022-10-04T01:34:46.594Z,1017.65
2022-10-04T01:35:46.573Z,1017.63
2022-10-04T01:36:46.550Z,1017.59
2022-10-04T01:37:46.549Z,1017.60
2022-10-04T01:38:46.500Z,1017.60
2022-10-04T01:39:46.482Z,1017.55
2022-10-04T01:40:46.455Z,1017.56
2022-10-04T01:41:46.434Z,1017.52
2022-10-04T01:42:46.406Z,1017.47
2022-10-04T01:43:46.383Z,1017.47
2022-10-04T01:44:46.358Z,1017.44
2022-10-04T01:45:46.336Z,1017.40
2022-10-04T01:46:46.352Z,1017.38
2022-10-04T01:47:46.295Z,1017.36
2022-10-04T01:48:46.264Z,1017.32
2022-10-04T01:49:46.241Z,1017.30
2022-10-04T01:50:46.218Z,1017.33
2022-10-04T01:51:46.195Z,1017.30
2022-10-04T01:52:46.169Z,1017.31
2022-10-04T01:53:46.168Z,1017.36
2022-10-04T01:54:46.127Z,1017.39
2022-10-04T01:55:46.100Z,1017.37
2022-10-04T01:56:46.077Z,1017.35
2022-10-04T01:57:46.053Z,1017.36
2022-10-04T01:58:46.028Z,1017.35
2022-10-04T01:59:46.004Z,1017.35
2022-10-04T02:00:46.066Z,1017.37
2022-10-04T02:01:46.387Z,1017.37
2022-10-04T02:02:45.936Z,1017.37
2022-10-04T02:03:45.965Z,1017.38
2022-10-04T02:04:45.912Z,1017.36
2022-10-04T02:05:45.863Z,1017.37
2022-10-04T02:06:45.856Z,1017.39
2022-10-04T02:07:45.818Z,1017.40
2022-10-04T02:08:45.793Z,1017.39
2022-10-04T02:09:45.792Z,1017.38
2022-10-04T02:10:45.755Z,1017.37
2022-10-04T02:11:45.723Z,1017.37
2022-10-04T02:12:45.700Z,1017.36
2022-10-04T02:13:45.675Z,1017.36
2022-10-04T02:14:45.654Z,1017.30
2022-10-04T02:15:45.699Z,1017.31
2022-10-04T02:16:45.606Z,1017.30
2022-10-04T02:17:45.580Z,1017.26
2022-10-04T02:18:45.558Z,1017.25
2022-10-04T02:19:45.536Z,1017.23
2022-10-04T02:20:45.513Z,1017.22
2022-10-04T02:21:45.488Z,1017.21
2022-10-04T02:22:45.465Z,1017.20
2022-10-04T02:23:45.440Z,1017.19
2022-10-04T02:24:45.455Z,1017.18
2022-10-04T02:25:45.415Z,1017.15
2022-10-04T02:26:45.370Z,1017.14
2022-10-04T02:27:45.346Z,1017.11
2022-10-04T02:28:45.321Z,1017.10
2022-10-04T02:29:45.296Z,1017.09
2022-10-04T02:30:45.267Z,1017.09
2022-10-04T02:31:45.664Z,1017.08
2022-10-04T02:32:45.230Z,1017.13
2022-10-04T02:33:45.202Z,1017.14
2022-10-04T02:34:45.180Z,1017.11
2022-10-04T02:35:45.154Z,1017.10
2022-10-04T02:36:45.132Z,1017.10
2022-10-04T02:37:45.108Z,1017.11
2022-10-04T02:38:45.090Z,1017.04
2022-10-04T02:39:45.062Z,1017.06
2022-10-04T02:40:45.041Z,1017.04
2022-10-04T02:41:45.035Z,1017.07
2022-10-04T02:42:44.993Z,1017.02
2022-10-04T02:43:44.967Z,1017.07
2022-10-04T02:44:44.945Z,1017.06
2022-10-04T02:45:44.921Z,1017.05
2022-10-04T02:46:44.944Z,1017.04
2022-10-04T02:47:44.874Z,1017.01
2022-10-04T02:48:44.850Z,1017.01
2022-10-04T02:49:44.825Z,1017.01
2022-10-04T02:50:44.804Z,1016.97
2022-10-04T02:51:44.778Z,1017.00
2022-10-04T02:52:44.758Z,1016.97
2022-10-04T02:53:44.731Z,1016.98
2022-10-04T02:54:44.708Z,1016.96
2022-10-04T02:55:44.683Z,1016.98
2022-10-04T02:56:44.661Z,1016.99
2022-10-04T02:57:44.664Z,1016.94
2022-10-04T02:58:44.613Z,1016.95
2022-10-04T02:59:44.590Z,1016.92
2022-10-04T03:00:44.623Z,1016.97
2022-10-04T03:01:45.014Z,1017.02
2022-10-04T03:02:44.588Z,1017.04
2022-10-04T03:03:44.496Z,1017.08
2022-10-04T03:04:44.476Z,1017.06
2022-10-04T03:05:44.450Z,1016.99
2022-10-04T03:06:44.431Z,1017.02
2022-10-04T03:07:44.404Z,1016.99
2022-10-04T03:08:44.376Z,1017.01
2022-10-04T03:09:44.352Z,1016.99
2022-10-04T03:10:44.331Z,1016.98
2022-10-04T03:11:44.558Z,1017.00
2022-10-04T03:12:44.284Z,1016.97
2022-10-04T03:13:44.286Z,1017.00
2022-10-04T03:14:44.238Z,1016.98
2022-10-04T03:15:44.242Z,1016.97
2022-10-04T03:16:44.190Z,1016.95
2022-10-04T03:17:44.163Z,1016.95
2022-10-04T03:18:44.143Z,1016.91
2022-10-04T03:19:44.118Z,1016.93
2022-10-04T03:20:44.095Z,1016.89
2022-10-04T03:21:44.261Z,1016.87
2022-10-04T03:22:46.937Z,1016.84
2022-10-04T03:23:44.025Z,1016.83
2022-10-04T03:24:43.998Z,1016.84
2022-10-04T03:25:43.975Z,1016.82
2022-10-04T03:26:43.954Z,1016.79
2022-10-04T03:27:43.930Z,1016.79
2022-10-04T03:28:43.904Z,1016.80
2022-10-04T03:29:43.905Z,1016.81
2022-10-04T03:30:43.858Z,1016.82
2022-10-04T03:31:44.365Z,1016.79
2022-10-04T03:32:43.808Z,1016.81
2022-10-04T03:33:43.785Z,1016.84
2022-10-04T03:34:43.762Z,1016.80
2022-10-04T03:35:43.738Z,1016.79
2022-10-04T03:36:43.715Z,1016.83
2022-10-04T03:37:43.693Z,1016.84
2022-10-04T03:38:43.668Z,1016.84
2022-10-04T03:39:43.644Z,1016.77
2022-10-04T03:40:43.620Z,1016.76
2022-10-04T03:41:43.799Z,1016.72
2022-10-04T03:42:43.574Z,1016.72
2022-10-04T03:43:43.548Z,1016.70
2022-10-04T03:44:43.527Z,1016.72
2022-10-04T03:45:43.584Z,1016.66
2022-10-04T03:46:43.477Z,1016.65
2022-10-04T03:47:43.454Z,1016.67
2022-10-04T03:48:43.431Z,1016.66
2022-10-04T03:49:46.273Z,1016.64
2022-10-04T03:50:43.383Z,1016.60
2022-10-04T03:51:43.589Z,1016.60
2022-10-04T03:52:43.343Z,1016.56
2022-10-04T03:53:43.586Z,1016.54
2022-10-04T03:54:43.289Z,1016.52
2022-10-04T03:55:43.266Z,1016.54
2022-10-04T03:56:43.242Z,1016.55
2022-10-04T03:57:43.218Z,1016.55
2022-10-04T03:58:43.196Z,1016.48
2022-10-04T03:59:43.171Z,1016.53
2022-10-04T04:00:43.232Z,1016.54
2022-10-04T04:01:43.450Z,1016.53
2022-10-04T04:02:45.952Z,1016.51
2022-10-04T04:03:43.075Z,1016.46
2022-10-04T04:04:43.048Z,1016.45
2022-10-04T04:05:43.031Z,1016.43
2022-10-04T04:06:43.006Z,1016.43
2022-10-04T04:07:42.980Z,1016.44
2022-10-04T04:08:42.954Z,1016.45
2022-10-04T04:09:42.931Z,1016.45
2022-10-04T04:10:42.909Z,1016.49
2022-10-04T04:11:43.164Z,1016.45
2022-10-04T04:12:42.858Z,1016.47
2022-10-04T04:13:42.835Z,1016.40
2022-10-04T04:14:42.811Z,1016.41
2022-10-04T04:15:42.799Z,1016.47
2022-10-04T04:16:42.809Z,1016.40
2022-10-04T04:17:42.763Z,1016.46
2022-10-04T04:18:42.716Z,1016.46
2022-10-04T04:19:42.695Z,1016.44
2022-10-04T04:20:42.669Z,1016.48
2022-10-04T04:21:42.979Z,1016.43
2022-10-04T04:22:42.622Z,1016.48
2022-10-04T04:23:42.599Z,1016.43
2022-10-04T04:24:42.573Z,1016.43
2022-10-04T04:25:42.559Z,1016.43
2022-10-04T04:26:42.528Z,1016.42
2022-10-04T04:27:42.507Z,1016.41
2022-10-04T04:28:42.478Z,1016.37
2022-10-04T04:29:42.469Z,1016.34
2022-10-04T04:30:42.432Z,1016.29
2022-10-04T04:31:42.743Z,1016.33
2022-10-04T04:32:42.386Z,1016.30
2022-10-04T04:33:42.382Z,1016.27
2022-10-04T04:34:42.336Z,1016.28
2022-10-04T04:35:42.315Z,1016.20
2022-10-04T04:36:42.289Z,1016.19
2022-10-04T04:37:42.268Z,1016.18
2022-10-04T04:38:42.240Z,1016.16
2022-10-04T04:39:42.220Z,1016.18
2022-10-04T04:40:42.196Z,1016.18
2022-10-04T04:41:45.677Z,1016.22
2022-10-04T04:42:42.146Z,1016.23
2022-10-04T04:43:42.124Z,1016.23
2022-10-04T04:44:42.099Z,1016.24
2022-10-04T04:45:42.113Z,1016.24
2022-10-04T04:46:42.095Z,1016.19
2022-10-04T04:47:42.029Z,1016.18
2022-10-04T04:48:42.003Z,1016.15
2022-10-04T04:49:42.001Z,1016.15
2022-10-04T04:50:41.958Z,1016.23
2022-10-04T04:51:42.210Z,1016.25
2022-10-04T04:52:41.914Z,1016.24
2022-10-04T04:53:41.890Z,1016.26
2022-10-04T04:54:41.861Z,1016.25
2022-10-04T04:56:02.424Z,1016.30
2022-10-04T04:56:41.813Z,1016.29
2022-10-04T04:57:41.790Z,1016.30
2022-10-04T04:58:41.764Z,1016.28
2022-10-04T04:59:41.744Z,1016.30
2022-10-04T05:00:41.743Z,1016.33
2022-10-04T05:01:41.990Z,1016.29
2022-10-04T05:02:41.668Z,1016.35
2022-10-04T05:03:41.649Z,1016.33
2022-10-04T05:04:41.624Z,1016.31
2022-10-04T05:05:41.721Z,1016.34
2022-10-04T05:06:41.573Z,1016.33
2022-10-04T05:07:41.550Z,1016.35
2022-10-04T05:08:41.717Z,1016.32
2022-10-04T05:09:41.503Z,1016.32
2022-10-04T05:10:41.478Z,1016.30
2022-10-04T05:11:41.762Z,1016.32
2022-10-04T05:12:41.429Z,1016.29
2022-10-04T05:13:41.407Z,1016.30
2022-10-04T05:14:41.385Z,1016.30
2022-10-04T05:15:41.360Z,1016.23
2022-10-04T05:16:41.508Z,1016.27
2022-10-04T05:17:41.317Z,1016.29
2022-10-04T05:18:41.286Z,1016.29
2022-10-04T05:19:41.265Z,1016.30
2022-10-04T05:20:41.239Z,1016.31
2022-10-04T05:21:42.929Z,1016.33
2022-10-04T05:22:41.194Z,1016.32
2022-10-04T05:23:41.168Z,1016.32
2022-10-04T05:24:41.145Z,1016.30
2022-10-04T05:25:41.120Z,1016.35
2022-10-04T05:26:41.099Z,1016.31
2022-10-04T05:27:41.071Z,1016.24
2022-10-04T05:28:41.049Z,1016.24
2022-10-04T05:29:41.023Z,1016.19
2022-10-04T05:30:41.000Z,1016.18
2022-10-04T05:31:41.362Z,1016.16
2022-10-04T05:32:40.950Z,1016.16
2022-10-04T05:33:40.928Z,1016.19
2022-10-04T05:34:40.905Z,1016.18
2022-10-04T05:35:40.882Z,1016.18
2022-10-04T05:36:40.855Z,1016.19
2022-10-04T05:37:40.854Z,1016.20
2022-10-04T05:38:40.809Z,1016.22
2022-10-04T05:39:40.786Z,1016.18
2022-10-04T05:40:40.761Z,1016.18
2022-10-04T05:41:40.736Z,1016.20
2022-10-04T05:42:40.712Z,1016.18
2022-10-04T05:43:40.689Z,1016.17
2022-10-04T05:44:40.665Z,1016.20
2022-10-04T05:45:40.701Z,1016.17
2022-10-04T05:46:43.949Z,1016.18
2022-10-04T05:47:40.596Z,1016.18
2022-10-04T05:48:40.568Z,1016.20
2022-10-04T05:49:40.549Z,1016.19
2022-10-04T05:50:40.521Z,1016.22
2022-10-04T05:51:40.891Z,1016.21
2022-10-04T05:52:40.475Z,1016.25
2022-10-04T05:53:40.468Z,1016.27
2022-10-04T05:54:40.427Z,1016.27
2022-10-04T05:55:40.400Z,1016.30
2022-10-04T05:56:40.377Z,1016.32
2022-10-04T05:57:40.352Z,1016.33
2022-10-04T05:58:40.332Z,1016.28
2022-10-04T05:59:40.308Z,1016.22
2022-10-04T06:00:40.282Z,1016.23
2022-10-04T06:01:40.368Z,1016.22
2022-10-04T06:02:40.285Z,1016.22
2022-10-04T06:03:40.210Z,1016.20
2022-10-04T06:04:40.184Z,1016.21
2022-10-04T06:05:40.160Z,1016.23
2022-10-04T06:06:40.135Z,1016.22
2022-10-04T06:07:40.114Z,1016.27
2022-10-04T06:08:40.090Z,1016.28
2022-10-04T06:09:40.091Z,1016.26
2022-10-04T06:10:40.040Z,1016.30
2022-10-04T06:11:40.149Z,1016.31
2022-10-04T06:12:44.129Z,1016.32
2022-10-04T06:13:39.969Z,1016.33
2022-10-04T06:14:39.941Z,1016.31
2022-10-04T06:15:39.924Z,1016.36
2022-10-04T06:16:39.933Z,1016.34
2022-10-04T06:17:39.875Z,1016.35
2022-10-04T06:18:39.849Z,1016.38
2022-10-04T06:19:39.826Z,1016.37
2022-10-04T06:20:39.801Z,1016.38
2022-10-04T06:21:39.930Z,1016.36
2022-10-04T06:22:39.751Z,1016.34
2022-10-04T06:23:39.743Z,1016.32
2022-10-04T06:24:39.703Z,1016.30
2022-10-04T06:25:39.699Z,1016.32
2022-10-04T06:26:39.657Z,1016.28
2022-10-04T06:27:39.634Z,1016.29
2022-10-04T06:28:39.677Z,1016.28
2022-10-04T06:29:39.587Z,1016.28
2022-10-04T06:30:39.682Z,1016.28
2022-10-04T06:31:39.547Z,1016.30
2022-10-04T06:32:39.512Z,1016.27
2022-10-04T06:33:39.495Z,1016.28
2022-10-04T06:34:39.467Z,1016.27
2022-10-04T06:35:39.447Z,1016.23
2022-10-04T06:36:39.416Z,1016.23
2022-10-04T06:37:39.397Z,1016.22
2022-10-04T06:38:39.372Z,1016.15
2022-10-04T06:39:39.346Z,1016.15
2022-10-04T06:40:39.322Z,1016.13
2022-10-04T06:41:39.315Z,1016.10
2022-10-04T06:42:39.272Z,1016.13
2022-10-04T06:43:39.250Z,1016.19
2022-10-04T06:44:42.238Z,1016.17
2022-10-04T06:45:39.221Z,1016.15
2022-10-04T06:46:39.179Z,1016.19
2022-10-04T06:47:39.156Z,1016.18
2022-10-04T06:48:39.131Z,1016.15
2022-10-04T06:49:39.104Z,1016.19
2022-10-04T06:50:39.081Z,1016.16
2022-10-04T06:51:39.067Z,1016.15
2022-10-04T06:52:39.031Z,1016.15
2022-10-04T06:53:39.007Z,1016.17
2022-10-04T06:54:38.989Z,1016.14
2022-10-04T06:55:38.961Z,1016.16
2022-10-04T06:56:38.936Z,1016.18
2022-10-04T06:57:38.941Z,1016.18
2022-10-04T06:58:38.891Z,1016.22
2022-10-04T06:59:38.867Z,1016.22
2022-10-04T07:00:38.841Z,1016.21
2022-10-04T07:01:38.888Z,1016.20
2022-10-04T07:02:38.888Z,1016.23
2022-10-04T07:03:38.770Z,1016.24
2022-10-04T07:05:06.276Z,1016.27
2022-10-04T07:05:38.725Z,1016.24
2022-10-04T07:06:38.700Z,1016.25
2022-10-04T07:07:38.744Z,1016.25
2022-10-04T07:08:38.651Z,1016.26
2022-10-04T07:09:38.631Z,1016.28
2022-10-04T07:10:38.610Z,1016.27
2022-10-04T07:11:38.590Z,1016.30
2022-10-04T07:12:38.562Z,1016.29
2022-10-04T07:13:38.566Z,1016.27
2022-10-04T07:14:38.509Z,1016.25
2022-10-04T07:15:38.587Z,1016.30
2022-10-04T07:16:38.462Z,1016.26
2022-10-04T07:17:38.435Z,1016.26
2022-10-04T07:18:38.416Z,1016.28
2022-10-04T07:19:38.394Z,1016.28
2022-10-04T07:20:38.367Z,1016.25
2022-10-04T07:21:38.341Z,1016.25
2022-10-04T07:22:38.329Z,1016.23
2022-10-04T07:23:38.295Z,1016.26
2022-10-04T07:24:38.272Z,1016.22
2022-10-04T07:25:38.253Z,1016.27
2022-10-04T07:26:38.225Z,1016.32
2022-10-04T07:27:38.201Z,1016.34
2022-10-04T07:28:38.308Z,1016.35
2022-10-04T07:29:41.904Z,1016.34
2022-10-04T07:30:38.192Z,1016.38
2022-10-04T07:31:38.109Z,1016.38
2022-10-04T07:32:38.082Z,1016.39
2022-10-04T07:33:38.059Z,1016.36
2022-10-04T07:34:38.036Z,1016.38
2022-10-04T07:35:38.013Z,1016.41
2022-10-04T07:36:37.988Z,1016.44
2022-10-04T07:37:37.972Z,1016.42
2022-10-04T07:38:37.941Z,1016.42
2022-10-04T07:39:37.922Z,1016.45
2022-10-04T07:40:37.895Z,1016.44
2022-10-04T07:41:37.872Z,1016.43
2022-10-04T07:42:37.846Z,1016.45
2022-10-04T07:43:37.827Z,1016.47
2022-10-04T07:44:37.801Z,1016.43
2022-10-04T07:45:37.820Z,1016.45
2022-10-04T07:46:37.755Z,1016.42
2022-10-04T07:47:37.735Z,1016.47
2022-10-04T07:48:37.706Z,1016.46
2022-10-04T07:49:37.685Z,1016.47
2022-10-04T07:50:37.662Z,1016.46
2022-10-04T07:51:37.638Z,1016.47
2022-10-04T07:52:37.613Z,1016.50
2022-10-04T07:53:37.591Z,1016.52
2022-10-04T07:54:37.565Z,1016.52
2022-10-04T07:55:37.544Z,1016.54
2022-10-04T07:56:37.519Z,1016.53
2022-10-04T07:57:37.500Z,1016.56
2022-10-04T07:58:39.312Z,1016.60
2022-10-04T07:59:37.454Z,1016.54
2022-10-04T08:00:37.426Z,1016.53
2022-10-04T08:01:37.468Z,1016.47
2022-10-04T08:02:37.547Z,1016.48
2022-10-04T08:03:37.413Z,1016.48
2022-10-04T08:04:37.332Z,1016.48
2022-10-04T08:05:37.316Z,1016.46
2022-10-04T08:06:37.295Z,1016.45
2022-10-04T08:07:37.269Z,1016.47
2022-10-04T08:08:37.253Z,1016.43
2022-10-04T08:09:37.219Z,1016.46
2022-10-04T08:10:37.196Z,1016.47
2022-10-04T08:11:37.171Z,1016.47
2022-10-04T08:12:37.143Z,1016.47
2022-10-04T08:13:37.136Z,1016.45
2022-10-04T08:14:37.101Z,1016.44
2022-10-04T08:15:37.168Z,1016.44
2022-10-04T08:16:37.061Z,1016.46
2022-10-04T08:17:37.053Z,1016.45
2022-10-04T08:18:37.013Z,1016.52
2022-10-04T08:19:36.985Z,1016.53
2022-10-04T08:20:36.961Z,1016.49
2022-10-04T08:21:36.937Z,1016.54
2022-10-04T08:22:36.915Z,1016.55
2022-10-04T08:23:36.890Z,1016.57
2022-10-04T08:24:36.872Z,1016.54
2022-10-04T08:25:36.848Z,1016.54
2022-10-04T08:26:36.835Z,1016.52
2022-10-04T08:27:36.797Z,1016.55
2022-10-04T08:28:36.854Z,1016.52
2022-10-04T08:29:36.752Z,1016.51
2022-10-04T08:30:36.728Z,1016.50
2022-10-04T08:31:36.705Z,1016.50
2022-10-04T08:32:36.682Z,1016.47
2022-10-04T08:33:36.680Z,1016.46
2022-10-04T08:34:36.636Z,1016.44
2022-10-04T08:35:36.645Z,1016.46
2022-10-04T08:36:36.593Z,1016.45
2022-10-04T08:37:36.566Z,1016.42
2022-10-04T08:38:36.543Z,1016.39
2022-10-04T08:39:36.518Z,1016.37
2022-10-04T08:40:36.508Z,1016.36
2022-10-04T08:41:36.471Z,1016.35
2022-10-04T08:42:36.450Z,1016.38
2022-10-04T08:43:36.435Z,1016.37
2022-10-04T08:44:36.403Z,1016.35
2022-10-04T08:45:36.382Z,1016.35
2022-10-04T08:46:36.440Z,1016.37
2022-10-04T08:47:36.333Z,1016.38
2022-10-04T08:48:36.315Z,1016.36
2022-10-04T08:49:36.300Z,1016.37
2022-10-04T08:50:36.264Z,1016.37
2022-10-04T08:51:36.242Z,1016.39
2022-10-04T08:52:36.224Z,1016.40
2022-10-04T08:53:36.195Z,1016.37
2022-10-04T08:54:36.182Z,1016.41
2022-10-04T08:55:36.150Z,1016.36
2022-10-04T08:56:36.125Z,1016.33
2022-10-04T08:57:36.109Z,1016.32
2022-10-04T08:58:36.077Z,1016.34
2022-10-04T08:59:36.054Z,1016.32
2022-10-04T09:00:36.032Z,1016.30
2022-10-04T09:01:36.030Z,1016.26
2022-10-04T09:02:36.051Z,1016.24
2022-10-04T09:03:35.957Z,1016.20
2022-10-04T09:04:35.944Z,1016.18
2022-10-04T09:05:35.944Z,1016.16
2022-10-04T09:06:35.894Z,1016.13
2022-10-04T09:07:35.872Z,1016.14
2022-10-04T09:08:35.850Z,1016.11
2022-10-04T09:09:35.823Z,1016.09
2022-10-04T09:10:35.807Z,1016.12
2022-10-04T09:11:35.781Z,1016.10
2022-10-04T09:12:35.758Z,1016.09
2022-10-04T09:13:35.736Z,1016.09
2022-10-04T09:14:35.713Z,1016.05
2022-10-04T09:15:35.749Z,1016.05
2022-10-04T09:16:35.670Z,1016.03
2022-10-04T09:17:35.644Z,1016.02
2022-10-04T09:18:35.627Z,1016.08
2022-10-04T09:19:35.594Z,1016.09
2022-10-04T09:20:39.797Z,1016.10
2022-10-04T09:21:35.590Z,1016.13
2022-10-04T09:22:35.528Z,1016.07
2022-10-04T09:23:35.505Z,1016.05
2022-10-04T09:24:35.483Z,1016.02
2022-10-04T09:25:35.461Z,1016.03
2022-10-04T09:26:35.441Z,1016.05
2022-10-04T09:27:54.177Z,1016.04
2022-10-04T09:28:35.413Z,1016.05
2022-10-04T09:29:35.372Z,1016.07
2022-10-04T09:30:35.348Z,1016.03
2022-10-04T09:31:35.484Z,1016.01
2022-10-04T09:32:35.305Z,1015.95
2022-10-04T09:33:35.277Z,1016.00
2022-10-04T09:34:37.606Z,1015.97
2022-10-04T09:35:35.233Z,1015.95
2022-10-04T09:36:35.210Z,1015.93
2022-10-04T09:37:35.205Z,1015.93
2022-10-04T09:38:35.169Z,1015.89
2022-10-04T09:39:35.143Z,1015.91
2022-10-04T09:40:35.127Z,1015.87
2022-10-04T09:41:35.099Z,1015.93
2022-10-04T09:42:35.079Z,1015.93
2022-10-04T09:43:35.056Z,1015.93
2022-10-04T09:44:35.041Z,1015.96
2022-10-04T09:45:35.018Z,1015.96
2022-10-04T09:46:35.125Z,1015.94
2022-10-04T09:47:34.963Z,1015.92
2022-10-04T09:48:34.943Z,1015.88
2022-10-04T09:49:34.918Z,1015.90
2022-10-04T09:50:34.899Z,1015.86
2022-10-04T09:51:34.872Z,1015.87
2022-10-04T09:52:34.859Z,1015.87
2022-10-04T09:53:34.853Z,1015.92
2022-10-04T09:54:34.806Z,1015.82
2022-10-04T09:55:34.784Z,1015.86
2022-10-04T09:56:34.762Z,1015.85
2022-10-04T09:57:34.740Z,1015.85
2022-10-04T09:58:34.717Z,1015.88
2022-10-04T09:59:34.697Z,1015.88
2022-10-04T10:00:34.674Z,1015.82
2022-10-04T10:01:34.755Z,1015.79
2022-10-04T10:02:34.706Z,1015.76
2022-10-04T10:03:34.607Z,1015.80
2022-10-04T10:04:34.581Z,1015.78
2022-10-04T10:05:34.563Z,1015.79
2022-10-04T10:06:34.537Z,1015.79
2022-10-04T10:07:34.516Z,1015.72
2022-10-04T10:08:34.490Z,1015.72
2022-10-04T10:09:34.496Z,1015.77
2022-10-04T10:10:34.452Z,1015.75
2022-10-04T10:11:34.430Z,1015.79
2022-10-04T10:12:34.404Z,1015.72
2022-10-04T10:13:34.386Z,1015.73
2022-10-04T10:14:34.361Z,1015.76
2022-10-04T10:15:34.423Z,1015.73
2022-10-04T10:16:34.321Z,1015.77
2022-10-04T10:17:34.295Z,1015.76
2022-10-04T10:18:34.274Z,1015.74
2022-10-04T10:19:34.254Z,1015.78
2022-10-04T10:20:34.226Z,1015.74
2022-10-04T10:21:34.209Z,1015.69
2022-10-04T10:22:34.185Z,1015.71
2022-10-04T10:23:34.160Z,1015.71
2022-10-04T10:24:34.142Z,1015.70
2022-10-04T10:25:34.154Z,1015.68
2022-10-04T10:26:34.097Z,1015.68
2022-10-04T10:27:34.075Z,1015.68
2022-10-04T10:28:34.190Z,1015.70
2022-10-04T10:29:34.030Z,1015.74
2022-10-04T10:30:34.009Z,1015.73
2022-10-04T10:31:34.102Z,1015.67
2022-10-04T10:32:33.969Z,1015.68
2022-10-04T10:33:33.941Z,1015.64
2022-10-04T10:34:33.921Z,1015.66
2022-10-04T10:35:33.899Z,1015.62
2022-10-04T10:36:33.880Z,1015.60
2022-10-04T10:37:33.863Z,1015.63
2022-10-04T10:38:33.838Z,1015.60
2022-10-04T10:39:33.815Z,1015.58
2022-10-04T10:40:33.799Z,1015.65
2022-10-04T10:41:33.793Z,1015.66
2022-10-04T10:42:33.745Z,1015.68
2022-10-04T10:43:33.725Z,1015.67
2022-10-04T10:44:33.703Z,1015.72
2022-10-04T10:45:33.682Z,1015.70
2022-10-04T10:46:33.721Z,1015.73
2022-10-04T10:47:33.649Z,1015.71
2022-10-04T10:48:33.618Z,1015.73
2022-10-04T10:49:33.594Z,1015.74
2022-10-04T10:50:33.575Z,1015.73
2022-10-04T10:51:33.553Z,1015.74
2022-10-04T10:52:33.535Z,1015.74
2022-10-04T10:53:33.511Z,1015.69
2022-10-04T10:54:33.489Z,1015.74
2022-10-04T10:55:33.467Z,1015.73
2022-10-04T10:56:33.444Z,1015.72
2022-10-04T10:57:33.445Z,1015.68
2022-10-04T10:58:33.399Z,1015.73
2022-10-04T10:59:33.379Z,1015.74
2022-10-04T11:00:33.356Z,1015.73
2022-10-04T11:01:33.447Z,1015.71
2022-10-04T11:02:48.675Z,1015.70
2022-10-04T11:03:33.451Z,1015.68
2022-10-04T11:04:33.272Z,1015.68
2022-10-04T11:05:33.250Z,1015.67
2022-10-04T11:06:33.228Z,1015.65
2022-10-04T11:07:33.208Z,1015.68
2022-10-04T11:08:33.185Z,1015.67
2022-10-04T11:09:33.166Z,1015.64
2022-10-04T11:10:33.147Z,1015.62
2022-10-04T11:11:33.126Z,1015.63
2022-10-04T11:12:33.099Z,1015.60
2022-10-04T11:13:33.123Z,1015.51
2022-10-04T11:14:33.064Z,1015.46
2022-10-04T11:15:33.034Z,1015.48
2022-10-04T11:16:33.088Z,1015.48
2022-10-04T11:17:33.002Z,1015.47
2022-10-04T11:18:32.973Z,1015.47
2022-10-04T11:19:32.950Z,1015.49
2022-10-04T11:20:32.932Z,1015.48
2022-10-04T11:21:32.907Z,1015.44
2022-10-04T11:22:38.057Z,1015.42
2022-10-04T11:23:32.867Z,1015.39
2022-10-04T11:24:32.844Z,1015.39
2022-10-04T11:25:32.821Z,1015.38
2022-10-04T11:26:32.805Z,1015.36
2022-10-04T11:27:32.782Z,1015.39
2022-10-04T11:28:32.766Z,1015.37
2022-10-04T11:29:32.759Z,1015.34
2022-10-04T11:30:32.719Z,1015.31
2022-10-04T11:31:32.784Z,1015.29
2022-10-04T11:32:32.673Z,1015.30
2022-10-04T11:33:32.650Z,1015.28
2022-10-04T11:34:32.630Z,1015.27
2022-10-04T11:35:32.610Z,1015.22
2022-10-04T11:36:32.591Z,1015.19
2022-10-04T11:37:32.566Z,1015.19
2022-10-04T11:38:32.547Z,1015.22
2022-10-04T11:39:32.523Z,1015.19
2022-10-04T11:40:32.505Z,1015.20
2022-10-04T11:41:32.482Z,1015.17
2022-10-04T11:42:32.462Z,1015.15
2022-10-04T11:43:32.442Z,1015.10
2022-10-04T11:44:32.419Z,1015.08
2022-10-04T11:45:32.419Z,1015.09
2022-10-04T11:46:32.420Z,1015.13
2022-10-04T11:47:32.355Z,1015.12
2022-10-04T11:48:32.333Z,1015.12
2022-10-04T11:49:32.313Z,1015.13
2022-10-04T11:50:32.296Z,1015.17
2022-10-04T11:51:32.271Z,1015.14
2022-10-04T11:52:32.253Z,1015.13
2022-10-04T11:53:32.235Z,1015.17
2022-10-04T11:54:32.214Z,1015.20
2022-10-04T11:55:32.194Z,1015.19
2022-10-04T11:56:32.166Z,1015.20
2022-10-04T11:57:32.145Z,1015.16
2022-10-04T11:58:32.128Z,1015.15
2022-10-04T11:59:32.107Z,1015.15
2022-10-04T12:00:32.080Z,1015.09
2022-10-04T12:01:32.099Z,1015.12
2022-10-04T12:02:32.040Z,1015.12
2022-10-04T12:03:32.124Z,1015.05
2022-10-04T12:04:32.061Z,1015.08
2022-10-04T12:05:31.974Z,1015.02